createdAt,value
2018-11-07T00:00:47.097Z,26.00
2018-11-07T00:03:15.423Z,24.43
2018-11-07T00:05:43.596Z,23.73
2018-11-07T00:08:11.927Z,24.57
2018-11-07T00:10:40.049Z,22.90
2018-11-07T00:13:08.242Z,21.13
2018-11-07T00:15:36.432Z,20.90
2018-11-07T00:18:04.661Z,20.70
2018-11-07T00:20:32.833Z,23.13
2018-11-07T00:23:01.012Z,23.43
2018-11-07T00:25:29.201Z,25.53
2018-11-07T00:27:57.381Z,25.47
2018-11-07T00:30:25.561Z,23.00
2018-11-07T00:32:53.758Z,30.00
2018-11-07T00:35:21.935Z,25.30
2018-11-07T00:37:50.085Z,21.30
2018-11-07T00:40:18.247Z,26.70
2018-11-07T00:42:46.417Z,25.87
2018-11-07T00:45:14.601Z,24.47
2018-11-07T00:47:43.246Z,22.03
2018-11-07T00:50:13.769Z,22.53
2018-11-07T00:52:42.460Z,21.50
2018-11-07T00:55:10.932Z,29.23
2018-11-07T00:57:39.169Z,22.70
2018-11-07T01:00:11.895Z,23.07
2018-11-07T01:02:40.069Z,25.43
2018-11-07T01:05:08.839Z,23.13
2018-11-07T01:07:37.018Z,24.40
2018-11-07T01:10:06.101Z,25.60
2018-11-07T01:12:34.285Z,22.20
2018-11-07T01:15:02.483Z,26.93
2018-11-07T01:17:30.738Z,24.20
2018-11-07T01:19:58.993Z,24.27
2018-11-07T01:22:27.300Z,26.50
2018-11-07T01:24:55.470Z,29.73
2018-11-07T01:27:23.638Z,28.93
2018-11-07T01:29:51.792Z,24.10
2018-11-07T01:32:19.969Z,23.50
2018-11-07T01:34:48.144Z,25.10
2018-11-07T01:37:16.335Z,22.93
2018-11-07T01:39:44.575Z,24.53
2018-11-07T01:42:12.851Z,23.67
2018-11-07T01:44:40.982Z,25.93
2018-11-07T01:47:09.345Z,24.23
2018-11-07T01:49:37.488Z,20.97
2018-11-07T01:52:05.702Z,23.57
2018-11-07T01:54:33.876Z,28.27
2018-11-07T01:57:02.041Z,24.30
2018-11-07T01:59:30.224Z,21.20
2018-11-07T02:01:58.433Z,26.33
2018-11-07T02:04:26.625Z,24.13
2018-11-07T02:06:54.802Z,21.97
2018-11-07T02:09:23.006Z,19.23
2018-11-07T02:11:51.189Z,19.73
2018-11-07T02:14:19.557Z,25.07
2018-11-07T02:16:47.745Z,20.70
2018-11-07T02:19:15.913Z,27.33
2018-11-07T02:21:44.073Z,23.80
2018-11-07T02:24:12.221Z,21.90
2018-11-07T02:26:40.526Z,20.57
2018-11-07T02:29:12.850Z,21.80
2018-11-07T02:31:42.251Z,23.43
2018-11-07T02:34:10.415Z,23.60
2018-11-07T02:36:38.634Z,22.90
2018-11-07T02:39:09.442Z,23.40
2018-11-07T02:41:37.850Z,23.57
2018-11-07T02:44:06.052Z,21.30
2018-11-07T02:46:34.301Z,21.93
2018-11-07T02:49:02.739Z,19.70
2018-11-07T02:51:30.906Z,22.87
2018-11-07T02:53:59.697Z,25.07
2018-11-07T02:56:27.892Z,21.77
2018-11-07T02:58:56.179Z,23.60
2018-11-07T03:01:24.367Z,20.83
2018-11-07T03:03:52.598Z,21.60
2018-11-07T03:06:20.765Z,25.00
2018-11-07T03:08:48.938Z,21.57
2018-11-07T03:11:17.106Z,21.70
2018-11-07T03:13:45.293Z,22.37
2018-11-07T03:16:13.469Z,23.50
2018-11-07T03:18:41.629Z,21.47
2018-11-07T03:21:09.806Z,22.57
2018-11-07T03:23:37.986Z,20.50
2018-11-07T03:26:06.149Z,21.60
2018-11-07T03:28:34.325Z,19.67
2018-11-07T03:31:02.614Z,25.17
2018-11-07T03:33:30.798Z,24.23
2018-11-07T03:35:58.965Z,18.83
2018-11-07T03:38:27.157Z,24.13
2018-11-07T03:40:55.342Z,19.63
2018-11-07T03:43:23.517Z,25.63
2018-11-07T03:45:57.549Z,21.63
2018-11-07T03:48:26.536Z,21.60
2018-11-07T03:50:54.706Z,18.43
2018-11-07T03:53:22.932Z,20.23
2018-11-07T03:55:51.078Z,17.83
2018-11-07T03:58:19.249Z,18.27
2018-11-07T04:00:47.470Z,16.47
2018-11-07T04:03:15.736Z,18.90
2018-11-07T04:05:43.895Z,19.93
2018-11-07T04:08:12.071Z,19.20
2018-11-07T04:10:40.289Z,21.10
2018-11-07T04:13:08.484Z,19.00
2018-11-07T04:15:36.649Z,20.03
2018-11-07T04:18:04.887Z,17.87
2018-11-07T04:20:33.110Z,19.23
2018-11-07T04:23:01.290Z,18.60
2018-11-07T04:25:29.470Z,21.70
2018-11-07T04:27:57.644Z,17.87
2018-11-07T04:30:25.814Z,17.07
2018-11-07T04:32:53.998Z,15.17
2018-11-07T04:35:22.151Z,16.97
2018-11-07T04:37:50.326Z,14.63
2018-11-07T04:40:18.498Z,16.30
2018-11-07T04:42:46.678Z,17.70
2018-11-07T04:45:14.878Z,24.07
2018-11-07T04:47:43.044Z,19.33
2018-11-07T04:50:12.124Z,24.10
2018-11-07T04:52:40.346Z,22.83
2018-11-07T04:55:08.546Z,22.77
2018-11-07T04:57:36.813Z,21.93
2018-11-07T05:00:07.364Z,19.33
2018-11-07T05:02:35.518Z,22.67
2018-11-07T05:05:03.709Z,21.20
2018-11-07T05:07:31.875Z,20.73
2018-11-07T05:10:00.057Z,21.77
2018-11-07T05:12:28.229Z,19.97
2018-11-07T05:14:56.417Z,19.63
2018-11-07T05:17:24.581Z,19.80
2018-11-07T05:19:52.783Z,19.13
2018-11-07T05:22:20.937Z,22.30
2018-11-07T05:24:49.117Z,18.87
2018-11-07T05:27:17.290Z,16.50
2018-11-07T05:29:45.489Z,18.50
2018-11-07T05:32:13.668Z,19.07
2018-11-07T05:34:41.836Z,36.30
2018-11-07T05:37:10.009Z,27.70
2018-11-07T05:39:38.186Z,25.43
2018-11-07T05:42:06.357Z,26.40
2018-11-07T05:44:34.546Z,24.07
2018-11-07T05:47:02.726Z,21.90
2018-11-07T05:49:30.913Z,21.43
2018-11-07T05:51:59.077Z,20.57
2018-11-07T05:54:27.244Z,20.20
2018-11-07T05:56:55.417Z,23.33
2018-11-07T05:59:23.645Z,21.30
2018-11-07T06:01:51.893Z,21.63
2018-11-07T06:04:20.105Z,20.53
2018-11-07T06:06:48.318Z,22.63
2018-11-07T06:09:16.513Z,19.00
2018-11-07T06:11:44.693Z,17.77
2018-11-07T06:14:12.902Z,19.63
2018-11-07T06:16:41.072Z,20.40
2018-11-07T06:19:09.289Z,26.40
2018-11-07T06:21:37.514Z,18.07
2018-11-07T06:24:05.877Z,22.10
2018-11-07T06:26:34.042Z,21.50
2018-11-07T06:29:02.225Z,20.37
2018-11-07T06:31:30.405Z,20.20
2018-11-07T06:33:58.620Z,19.03
2018-11-07T06:36:26.762Z,22.93
2018-11-07T06:38:55.982Z,19.30
2018-11-07T06:41:24.151Z,17.23
2018-11-07T06:43:52.315Z,16.07
2018-11-07T06:46:20.487Z,23.90
2018-11-07T06:48:48.634Z,20.07
2018-11-07T06:51:16.813Z,20.63
2018-11-07T06:53:44.973Z,20.30
2018-11-07T06:56:13.154Z,22.93
2018-11-07T06:58:41.331Z,24.53
2018-11-07T07:01:09.520Z,20.37
2018-11-07T07:03:37.678Z,19.50
2018-11-07T07:06:05.890Z,19.80
2018-11-07T07:08:34.066Z,17.03
2018-11-07T07:11:03.243Z,20.57
2018-11-07T07:13:31.517Z,20.00
2018-11-07T07:15:59.705Z,19.97
2018-11-07T07:18:28.057Z,23.50
2018-11-07T07:20:56.250Z,21.30
2018-11-07T07:23:24.458Z,18.77
2018-11-07T07:25:52.653Z,19.20
2018-11-07T07:28:20.826Z,20.47
2018-11-07T07:30:49.046Z,22.10
2018-11-07T07:33:17.294Z,16.73
2018-11-07T07:35:45.480Z,20.93
2018-11-07T07:38:13.687Z,23.03
2018-11-07T07:40:41.885Z,24.10
2018-11-07T07:43:10.096Z,19.77
2018-11-07T07:45:38.297Z,19.93
2018-11-07T07:48:06.519Z,20.03
2018-11-07T07:50:34.685Z,17.73
2018-11-07T07:53:02.928Z,18.90
2018-11-07T07:55:31.263Z,18.37
2018-11-07T07:58:00.055Z,21.70
2018-11-07T08:00:28.449Z,23.13
2018-11-07T08:02:56.882Z,24.87
2018-11-07T08:05:25.066Z,20.83
2018-11-07T08:07:53.235Z,20.20
2018-11-07T08:10:22.261Z,20.00
2018-11-07T08:12:50.989Z,20.00
2018-11-07T08:15:19.489Z,27.83
2018-11-07T08:17:47.887Z,21.40
2018-11-07T08:20:17.085Z,19.47
2018-11-07T08:22:46.140Z,17.43
2018-11-07T08:25:14.322Z,20.93
2018-11-07T08:27:42.527Z,17.40
2018-11-07T08:30:12.718Z,17.03
2018-11-07T08:32:41.188Z,19.27
2018-11-07T08:35:10.607Z,31.80
2018-11-07T08:37:39.304Z,18.70
2018-11-07T08:40:09.601Z,18.40
2018-11-07T08:42:38.298Z,17.00
2018-11-07T08:45:06.978Z,26.10
2018-11-07T08:47:35.166Z,19.20
2018-11-07T08:50:03.458Z,25.50
2018-11-07T08:52:31.633Z,24.73
2018-11-07T08:54:59.872Z,22.17
2018-11-07T08:57:28.027Z,21.20
2018-11-07T08:59:56.526Z,21.00
2018-11-07T09:02:24.828Z,19.10
2018-11-07T09:04:52.997Z,20.43
2018-11-07T09:07:21.186Z,21.80
2018-11-07T09:09:49.734Z,18.40
2018-11-07T09:12:17.910Z,16.37
2018-11-07T09:14:46.081Z,19.00
2018-11-07T09:17:14.258Z,15.77
2018-11-07T09:19:42.502Z,17.47
2018-11-07T09:22:10.628Z,16.63
2018-11-07T09:24:38.832Z,17.67
2018-11-07T09:27:07.030Z,15.33
2018-11-07T09:29:35.210Z,14.43
2018-11-07T09:32:03.422Z,16.57
2018-11-07T09:34:31.601Z,15.00
2018-11-07T09:36:59.806Z,15.80
2018-11-07T09:39:28.017Z,13.23
2018-11-07T09:41:56.183Z,16.27
2018-11-07T09:44:24.362Z,12.43
2018-11-07T09:46:52.573Z,11.93
2018-11-07T09:49:20.756Z,13.53
2018-11-07T09:51:48.959Z,10.93
2018-11-07T09:54:17.197Z,14.50
2018-11-07T09:56:45.322Z,13.77
2018-11-07T09:59:13.521Z,11.80
2018-11-07T10:01:41.715Z,11.60
2018-11-07T10:04:09.887Z,11.50
2018-11-07T10:06:38.132Z,11.67
2018-11-07T10:09:08.245Z,12.33
2018-11-07T10:11:36.488Z,9.77
2018-11-07T10:14:05.148Z,9.10
2018-11-07T10:16:33.362Z,8.20
2018-11-07T10:19:01.627Z,9.07
2018-11-07T10:21:29.825Z,8.60
2018-11-07T10:23:58.002Z,8.43
2018-11-07T10:26:26.182Z,7.80
2018-11-07T10:28:54.667Z,8.53
2018-11-07T10:31:22.815Z,6.40
2018-11-07T10:33:51.010Z,7.83
2018-11-07T10:36:19.223Z,9.53
2018-11-07T10:38:47.505Z,13.97
2018-11-07T10:41:15.659Z,6.03
2018-11-07T10:43:43.844Z,6.97
2018-11-07T10:46:12.051Z,4.90
2018-11-07T10:48:40.270Z,6.57
2018-11-07T10:51:08.448Z,6.50
2018-11-07T10:53:36.623Z,4.43
2018-11-07T10:56:04.950Z,8.80
2018-11-07T10:58:33.128Z,5.53
2018-11-07T11:01:06.698Z,12.10
2018-11-07T11:03:35.479Z,13.17
2018-11-07T11:06:03.674Z,8.43
2018-11-07T11:08:31.861Z,20.10
2018-11-07T11:11:00.075Z,15.30
2018-11-07T11:13:28.262Z,6.60
2018-11-07T11:15:56.447Z,5.63
2018-11-07T11:18:24.741Z,8.40
2018-11-07T11:20:52.930Z,7.10
2018-11-07T11:23:21.125Z,9.13
2018-11-07T11:25:49.439Z,9.17
2018-11-07T11:28:17.509Z,5.37
2018-11-07T11:30:45.698Z,6.30
2018-11-07T11:33:13.891Z,4.07
2018-11-07T11:35:42.063Z,6.60
2018-11-07T11:38:10.251Z,5.93
2018-11-07T11:40:38.444Z,4.20
2018-11-07T11:43:06.639Z,4.57
2018-11-07T11:45:34.811Z,5.20
2018-11-07T11:48:02.992Z,4.10
2018-11-07T11:50:31.166Z,3.60
2018-11-07T11:52:59.357Z,5.60
2018-11-07T11:55:27.543Z,3.93
2018-11-07T11:57:55.724Z,5.07
2018-11-07T12:00:23.912Z,3.83
2018-11-07T12:02:52.082Z,3.87
2018-11-07T12:05:20.365Z,3.03
2018-11-07T12:07:48.562Z,2.17
2018-11-07T12:10:19.889Z,4.73
2018-11-07T12:12:49.289Z,3.73
2018-11-07T12:15:18.614Z,4.87
2018-11-07T12:17:46.841Z,3.43
2018-11-07T12:20:14.949Z,3.33
2018-11-07T12:22:43.170Z,5.70
2018-11-07T12:25:12.549Z,6.47
2018-11-07T12:27:41.332Z,5.40
2018-11-07T12:30:11.505Z,5.20
2018-11-07T12:32:39.718Z,3.70
2018-11-07T12:35:07.889Z,3.97
2018-11-07T12:37:36.071Z,3.60
2018-11-07T12:40:04.787Z,3.60
2018-11-07T12:42:33.009Z,4.37
2018-11-07T12:45:01.610Z,4.50
2018-11-07T12:47:29.842Z,4.30
2018-11-07T12:49:58.156Z,4.60
2018-11-07T12:52:26.250Z,4.67
2018-11-07T12:54:54.470Z,4.43
2018-11-07T12:57:22.834Z,4.43
2018-11-07T12:59:50.818Z,5.50
2018-11-07T13:02:19.049Z,6.40
2018-11-07T13:04:47.227Z,4.23
2018-11-07T13:07:15.392Z,5.03
2018-11-07T13:09:43.590Z,6.40
2018-11-07T13:12:11.763Z,4.87
2018-11-07T13:14:39.934Z,4.80
2018-11-07T13:17:08.110Z,4.40
2018-11-07T13:19:36.249Z,3.97
2018-11-07T13:22:04.760Z,5.17
2018-11-07T13:24:32.909Z,4.63
2018-11-07T13:27:01.086Z,5.07
2018-11-07T13:29:29.259Z,4.23
2018-11-07T13:31:57.473Z,4.70
2018-11-07T13:34:25.678Z,8.17
2018-11-07T13:36:53.995Z,4.20
2018-11-07T13:39:22.116Z,5.30
2018-11-07T13:41:50.205Z,4.90
2018-11-07T13:44:18.373Z,4.17
2018-11-07T13:46:46.545Z,2.83
2018-11-07T13:49:14.942Z,4.40
2018-11-07T13:51:43.130Z,4.27
2018-11-07T13:54:11.320Z,8.57
2018-11-07T13:56:39.497Z,3.30
2018-11-07T13:59:07.719Z,6.17
2018-11-07T14:01:35.869Z,4.27
2018-11-07T14:04:04.425Z,9.73
2018-11-07T14:06:32.596Z,8.33
2018-11-07T14:09:00.774Z,4.70
2018-11-07T14:11:28.942Z,9.63
2018-11-07T14:13:57.123Z,5.80
2018-11-07T14:16:25.355Z,4.87
2018-11-07T14:18:53.502Z,4.93
2018-11-07T14:21:21.710Z,4.43
2018-11-07T14:23:49.890Z,3.60
2018-11-07T14:26:18.142Z,4.87
2018-11-07T14:28:46.367Z,2.60
2018-11-07T14:31:14.486Z,3.80
2018-11-07T14:33:42.679Z,4.10
2018-11-07T14:36:10.879Z,3.33
2018-11-07T14:38:39.097Z,3.93
2018-11-07T14:41:07.230Z,6.80
2018-11-07T14:43:35.410Z,3.30
2018-11-07T14:46:03.639Z,3.00
2018-11-07T14:48:31.835Z,3.17
2018-11-07T14:51:00.021Z,4.30
2018-11-07T14:53:28.218Z,3.97
2018-11-07T14:55:56.370Z,4.60
2018-11-07T14:58:24.601Z,5.33
2018-11-07T15:00:52.767Z,4.03
2018-11-07T15:03:20.939Z,3.20
2018-11-07T15:05:49.128Z,4.87
2018-11-07T15:08:17.353Z,2.77
2018-11-07T15:10:45.465Z,6.60
2018-11-07T15:13:13.662Z,26.37
2018-11-07T15:15:41.854Z,31.90
2018-11-07T15:18:10.037Z,22.93
2018-11-07T15:20:38.225Z,13.50
2018-11-07T15:23:06.449Z,12.80
2018-11-07T15:25:34.637Z,9.97
2018-11-07T15:28:02.826Z,8.70
2018-11-07T15:30:30.996Z,6.47
2018-11-07T15:32:59.197Z,8.60
2018-11-07T15:35:27.364Z,8.80
2018-11-07T15:37:55.554Z,10.43
2018-11-07T15:40:23.749Z,10.57
2018-11-07T15:42:51.917Z,11.63
2018-11-07T15:45:20.472Z,11.50
2018-11-07T15:47:48.673Z,9.67
2018-11-07T15:50:22.264Z,8.97
2018-11-07T15:52:50.554Z,13.27
2018-11-07T15:55:18.717Z,9.97
2018-11-07T15:57:46.901Z,8.57
2018-11-07T16:00:16.161Z,6.27
2018-11-07T16:02:44.445Z,9.40
2018-11-07T16:05:13.732Z,11.40
2018-11-07T16:07:41.936Z,8.77
2018-11-07T16:10:11.456Z,7.40
2018-11-07T16:12:40.298Z,12.37
2018-11-07T16:15:10.168Z,12.73
2018-11-07T16:17:38.307Z,12.13
2018-11-07T16:20:09.537Z,12.53
2018-11-07T16:22:37.799Z,13.50
2018-11-07T16:25:06.497Z,14.90
2018-11-07T16:27:34.770Z,16.50
2018-11-07T16:30:02.952Z,12.13
2018-11-07T16:32:31.156Z,14.73
2018-11-07T16:34:59.335Z,9.37
2018-11-07T16:37:27.597Z,13.80
2018-11-07T16:39:55.767Z,10.00
2018-11-07T16:42:24.217Z,8.70
2018-11-07T16:44:52.334Z,7.87
2018-11-07T16:47:20.525Z,9.37
2018-11-07T16:49:48.693Z,9.43
2018-11-07T16:52:16.858Z,9.73
2018-11-07T16:54:45.047Z,10.30
2018-11-07T16:57:13.222Z,9.33
2018-11-07T16:59:41.778Z,14.00
2018-11-07T17:02:09.953Z,9.90
2018-11-07T17:04:38.176Z,8.67
2018-11-07T17:07:06.296Z,12.00
2018-11-07T17:09:34.453Z,12.20
2018-11-07T17:12:02.619Z,14.77
2018-11-07T17:14:30.793Z,12.40
2018-11-07T17:16:58.955Z,14.00
2018-11-07T17:19:27.153Z,10.97
2018-11-07T17:21:55.321Z,16.63
2018-11-07T17:24:23.651Z,11.67
2018-11-07T17:26:51.710Z,14.93
2018-11-07T17:29:19.907Z,10.40
2018-11-07T17:31:48.120Z,10.33
2018-11-07T17:34:16.266Z,9.87
2018-11-07T17:36:44.429Z,12.87
2018-11-07T17:39:12.927Z,10.97
2018-11-07T17:41:41.165Z,9.03
2018-11-07T17:44:09.345Z,11.90
2018-11-07T17:46:37.522Z,14.03
2018-11-07T17:49:06.147Z,17.13
2018-11-07T17:51:35.089Z,11.37
2018-11-07T17:54:04.339Z,12.13
2018-11-07T17:56:32.572Z,15.60
2018-11-07T17:59:00.762Z,17.60
2018-11-07T18:01:28.942Z,17.53
2018-11-07T18:03:57.466Z,20.87
2018-11-07T18:06:26.756Z,16.87
2018-11-07T18:08:55.277Z,20.00
2018-11-07T18:11:25.919Z,21.70
2018-11-07T18:13:54.343Z,19.30
2018-11-07T18:16:28.024Z,20.37
2018-11-07T18:18:58.391Z,19.33
2018-11-07T18:21:26.782Z,21.70
2018-11-07T18:23:55.110Z,16.70
2018-11-07T18:26:23.344Z,19.23
2018-11-07T18:28:51.638Z,17.70
2018-11-07T18:31:19.878Z,18.90
2018-11-07T18:33:52.963Z,19.93
2018-11-07T18:36:24.416Z,20.33
2018-11-07T18:38:58.802Z,19.50
2018-11-07T18:41:27.040Z,25.87
2018-11-07T18:43:55.245Z,17.83
2018-11-07T18:46:23.425Z,25.63
2018-11-07T18:48:51.933Z,32.40
2018-11-07T18:51:20.163Z,19.00
2018-11-07T18:53:48.347Z,17.37
2018-11-07T18:56:16.559Z,16.87
2018-11-07T18:58:44.960Z,15.50
2018-11-07T19:01:14.142Z,16.80
2018-11-07T19:03:42.332Z,16.03
2018-11-07T19:06:10.522Z,16.33
2018-11-07T19:08:38.744Z,13.23
2018-11-07T19:11:07.402Z,16.30
2018-11-07T19:13:35.785Z,12.80
2018-11-07T19:16:04.009Z,30.33
2018-11-07T19:18:32.200Z,15.10
2018-11-07T19:21:00.402Z,25.00
2018-11-07T19:23:28.638Z,24.30
2018-11-07T19:25:56.927Z,18.23
2018-11-07T19:28:26.006Z,11.03
2018-11-07T19:30:54.298Z,12.13
2018-11-07T19:33:22.502Z,16.03
2018-11-07T19:35:50.970Z,9.93
2018-11-07T19:38:19.261Z,15.73
2018-11-07T19:40:47.721Z,18.13
2018-11-07T19:43:16.083Z,15.37
2018-11-07T19:45:44.431Z,20.40
2018-11-07T19:48:12.886Z,16.27
2018-11-07T19:50:41.494Z,19.30
2018-11-07T19:53:09.890Z,17.57
2018-11-07T19:55:38.179Z,18.10
2018-11-07T19:58:06.535Z,17.63
2018-11-07T20:00:37.872Z,22.83
2018-11-07T20:03:06.436Z,15.30
2018-11-07T20:05:34.943Z,15.70
2018-11-07T20:08:03.419Z,21.40
2018-11-07T20:10:31.800Z,24.17
2018-11-07T20:13:00.229Z,17.90
2018-11-07T20:15:28.621Z,13.03
2018-11-07T20:17:57.366Z,12.73
2018-11-07T20:20:25.889Z,15.30
2018-11-07T20:22:54.818Z,16.53
2018-11-07T20:25:23.065Z,17.57
2018-11-07T20:27:51.397Z,19.37
2018-11-07T20:30:20.645Z,19.70
2018-11-07T20:32:49.024Z,17.03
2018-11-07T20:35:18.636Z,16.90
2018-11-07T20:37:46.954Z,17.93
2018-11-07T20:40:16.818Z,19.23
2018-11-07T20:42:45.249Z,18.27
2018-11-07T20:45:22.149Z,19.40
2018-11-07T20:47:50.685Z,14.70
2018-11-07T20:50:20.260Z,21.13
2018-11-07T20:52:48.906Z,15.30
2018-11-07T20:55:17.646Z,18.17
2018-11-07T20:57:46.788Z,17.73
2018-11-07T21:00:23.535Z,14.20
2018-11-07T21:02:57.184Z,19.23
2018-11-07T21:05:26.650Z,19.60
2018-11-07T21:07:56.030Z,19.90
2018-11-07T21:10:26.435Z,19.27
2018-11-07T21:12:55.886Z,16.53
2018-11-07T21:15:24.768Z,17.27
2018-11-07T21:17:53.854Z,16.07
2018-11-07T21:20:23.662Z,14.57
2018-11-07T21:22:52.445Z,14.77
2018-11-07T21:25:21.240Z,14.70
2018-11-07T21:27:49.913Z,14.97
2018-11-07T21:30:18.606Z,14.00
2018-11-07T21:32:47.535Z,14.60
2018-11-07T21:35:16.261Z,15.03
2018-11-07T21:37:44.848Z,19.53
2018-11-07T21:40:15.469Z,17.90
2018-11-07T21:42:44.428Z,13.13
2018-11-07T21:45:14.143Z,13.90
2018-11-07T21:47:43.312Z,17.03
2018-11-07T21:50:14.440Z,15.30
2018-11-07T21:52:46.752Z,16.33
2018-11-07T21:55:18.860Z,21.30
2018-11-07T21:57:48.874Z,28.50
2018-11-07T22:00:18.796Z,17.67
2018-11-07T22:02:47.334Z,15.10
2018-11-07T22:05:18.112Z,16.17
2018-11-07T22:07:48.382Z,16.10
2018-11-07T22:10:19.031Z,13.63
2018-11-07T22:12:49.880Z,14.10
2018-11-07T22:15:19.471Z,17.10
2018-11-07T22:17:48.398Z,14.30
2018-11-07T22:20:19.305Z,14.40
2018-11-07T22:22:48.220Z,14.87
2018-11-07T22:25:16.715Z,19.23
2018-11-07T22:27:45.369Z,15.77
2018-11-07T22:30:19.173Z,18.23
2018-11-07T22:32:48.085Z,14.10
2018-11-07T22:35:18.047Z,17.23
2018-11-07T22:37:48.270Z,21.17
2018-11-07T22:40:17.962Z,14.60
2018-11-07T22:42:48.019Z,15.90
2018-11-07T22:45:21.581Z,16.63
2018-11-07T22:47:53.388Z,16.20
2018-11-07T22:50:24.601Z,19.00
2018-11-07T22:52:54.410Z,16.47
2018-11-07T22:55:34.202Z,18.97
2018-11-07T22:58:03.027Z,15.00
2018-11-07T23:00:36.789Z,14.63
2018-11-07T23:03:12.048Z,16.10
2018-11-07T23:05:40.448Z,17.30
2018-11-07T23:08:08.733Z,15.67
2018-11-07T23:10:41.009Z,15.87
2018-11-07T23:13:09.786Z,14.43
2018-11-07T23:15:43.679Z,13.30
2018-11-07T23:18:12.360Z,11.60
2018-11-07T23:20:41.486Z,14.13
2018-11-07T23:23:10.244Z,12.53
2018-11-07T23:25:40.908Z,15.27
2018-11-07T23:28:11.855Z,15.30
2018-11-07T23:30:42.610Z,10.73
2018-11-07T23:33:14.751Z,12.20
2018-11-07T23:35:46.590Z,12.50
2018-11-07T23:38:21.804Z,12.37
2018-11-07T23:40:56.454Z,16.20
2018-11-07T23:43:25.200Z,12.60
2018-11-07T23:45:53.541Z,14.43
2018-11-07T23:48:21.802Z,13.43
2018-11-07T23:50:51.215Z,14.10
2018-11-07T23:53:20.406Z,16.97
2018-11-07T23:55:49.706Z,14.03
2018-11-07T23:58:18.017Z,10.53
